sensor_id;sensor_type;location;lat;lon;timestamp;P1;durP1;ratioP1;P2;durP2;ratioP2
58878;SDS011;44660;42.664;23.266;2023-09-08T00:01:47;11.32;;;7.38;;
58878;SDS011;44660;42.664;23.266;2023-09-08T00:04:13;11.00;;;8.27;;
58878;SDS011;44660;42.664;23.266;2023-09-08T00:06:39;12.25;;;7.90;;
58878;SDS011;44660;42.664;23.266;2023-09-08T00:09:05;11.63;;;8.55;;
58878;SDS011;44660;42.664;23.266;2023-09-08T00:11:31;8.60;;;7.30;;
58878;SDS011;44660;42.664;23.266;2023-09-08T00:13:57;10.20;;;7.28;;
58878;SDS011;44660;42.664;23.266;2023-09-08T00:16:22;11.68;;;7.57;;
58878;SDS011;44660;42.664;23.266;2023-09-08T00:18:48;11.43;;;7.60;;
58878;SDS011;44660;42.664;23.266;2023-09-08T00:21:13;10.30;;;7.65;;
58878;SDS011;44660;42.664;23.266;2023-09-08T00:23:39;9.52;;;6.28;;
58878;SDS011;44660;42.664;23.266;2023-09-08T00:26:04;8.30;;;6.20;;
58878;SDS011;44660;42.664;23.266;2023-09-08T00:28:30;8.32;;;6.45;;
58878;SDS011;44660;42.664;23.266;2023-09-08T00:30:55;8.73;;;6.00;;
58878;SDS011;44660;42.664;23.266;2023-09-08T00:33:21;9.25;;;6.07;;
58878;SDS011;44660;42.664;23.266;2023-09-08T00:35:50;8.13;;;5.85;;
58878;SDS011;44660;42.664;23.266;2023-09-08T00:40:42;8.30;;;5.65;;
58878;SDS011;44660;42.664;23.266;2023-09-08T00:43:07;8.23;;;5.47;;
58878;SDS011;44660;42.664;23.266;2023-09-08T00:45:33;7.55;;;5.20;;
58878;SDS011;44660;42.664;23.266;2023-09-08T00:48:07;6.70;;;4.82;;
58878;SDS011;44660;42.664;23.266;2023-09-08T00:50:33;6.72;;;5.38;;
58878;SDS011;44660;42.664;23.266;2023-09-08T00:52:59;8.20;;;5.28;;
58878;SDS011;44660;42.664;23.266;2023-09-08T00:55:25;8.40;;;4.97;;
58878;SDS011;44660;42.664;23.266;2023-09-08T00:57:50;5.97;;;4.25;;
58878;SDS011;44660;42.664;23.266;2023-09-08T01:00:16;8.63;;;4.20;;
58878;SDS011;44660;42.664;23.266;2023-09-08T01:02:42;8.65;;;4.43;;
58878;SDS011;44660;42.664;23.266;2023-09-08T01:05:08;6.80;;;4.22;;
58878;SDS011;44660;42.664;23.266;2023-09-08T01:07:33;5.32;;;4.60;;
58878;SDS011;44660;42.664;23.266;2023-09-08T01:10:00;6.60;;;4.60;;
58878;SDS011;44660;42.664;23.266;2023-09-08T01:12:29;7.57;;;4.18;;
58878;SDS011;44660;42.664;23.266;2023-09-08T01:14:55;8.35;;;4.35;;
58878;SDS011;44660;42.664;23.266;2023-09-08T01:17:20;5.70;;;4.25;;
58878;SDS011;44660;42.664;23.266;2023-09-08T01:19:46;6.78;;;4.32;;
58878;SDS011;44660;42.664;23.266;2023-09-08T01:22:19;7.93;;;4.47;;
58878;SDS011;44660;42.664;23.266;2023-09-08T01:27:37;8.77;;;4.25;;
58878;SDS011;44660;42.664;23.266;2023-09-08T01:30:06;6.40;;;4.23;;
58878;SDS011;44660;42.664;23.266;2023-09-08T01:32:32;6.80;;;3.83;;
58878;SDS011;44660;42.664;23.266;2023-09-08T01:34:59;6.03;;;4.05;;
58878;SDS011;44660;42.664;23.266;2023-09-08T01:37:25;6.90;;;4.10;;
58878;SDS011;44660;42.664;23.266;2023-09-08T01:39:51;6.28;;;4.00;;
58878;SDS011;44660;42.664;23.266;2023-09-08T01:42:16;4.90;;;4.03;;
58878;SDS011;44660;42.664;23.266;2023-09-08T01:44:42;9.23;;;4.55;;
58878;SDS011;44660;42.664;23.266;2023-09-08T01:47:07;6.60;;;4.03;;
58878;SDS011;44660;42.664;23.266;2023-09-08T01:49:33;7.53;;;4.30;;
58878;SDS011;44660;42.664;23.266;2023-09-08T01:51:58;8.38;;;4.38;;
58878;SDS011;44660;42.664;23.266;2023-09-08T01:54:26;7.15;;;4.40;;
58878;SDS011;44660;42.664;23.266;2023-09-08T01:56:51;7.75;;;4.85;;
58878;SDS011;44660;42.664;23.266;2023-09-08T01:59:17;8.70;;;4.40;;
58878;SDS011;44660;42.664;23.266;2023-09-08T02:01:42;8.48;;;4.07;;
58878;SDS011;44660;42.664;23.266;2023-09-08T02:04:08;7.70;;;4.60;;
58878;SDS011;44660;42.664;23.266;2023-09-08T02:06:33;6.25;;;4.20;;
58878;SDS011;44660;42.664;23.266;2023-09-08T02:08:59;9.13;;;5.38;;
58878;SDS011;44660;42.664;23.266;2023-09-08T02:11:24;8.85;;;4.88;;
58878;SDS011;44660;42.664;23.266;2023-09-08T02:13:50;7.40;;;4.45;;
58878;SDS011;44660;42.664;23.266;2023-09-08T02:16:17;5.85;;;4.55;;
58878;SDS011;44660;42.664;23.266;2023-09-08T02:18:42;6.45;;;4.22;;
58878;SDS011;44660;42.664;23.266;2023-09-08T02:21:09;7.43;;;4.78;;
58878;SDS011;44660;42.664;23.266;2023-09-08T02:23:35;9.13;;;4.53;;
58878;SDS011;44660;42.664;23.266;2023-09-08T02:26:01;7.50;;;4.68;;
58878;SDS011;44660;42.664;23.266;2023-09-08T02:28:26;6.75;;;4.70;;
58878;SDS011;44660;42.664;23.266;2023-09-08T02:30:52;8.40;;;4.72;;
58878;SDS011;44660;42.664;23.266;2023-09-08T02:33:18;6.70;;;5.10;;
58878;SDS011;44660;42.664;23.266;2023-09-08T02:35:43;7.15;;;5.15;;
58878;SDS011;44660;42.664;23.266;2023-09-08T02:38:09;9.88;;;5.35;;
58878;SDS011;44660;42.664;23.266;2023-09-08T02:40:35;7.13;;;5.07;;
58878;SDS011;44660;42.664;23.266;2023-09-08T02:43:00;8.57;;;5.30;;
58878;SDS011;44660;42.664;23.266;2023-09-08T02:45:26;8.75;;;5.30;;
58878;SDS011;44660;42.664;23.266;2023-09-08T02:47:52;8.45;;;4.93;;
58878;SDS011;44660;42.664;23.266;2023-09-08T02:50:18;10.13;;;5.68;;
58878;SDS011;44660;42.664;23.266;2023-09-08T02:52:44;8.25;;;5.28;;
58878;SDS011;44660;42.664;23.266;2023-09-08T02:55:10;7.40;;;5.45;;
58878;SDS011;44660;42.664;23.266;2023-09-08T02:57:36;12.40;;;6.03;;
58878;SDS011;44660;42.664;23.266;2023-09-08T03:00:02;10.77;;;6.18;;
58878;SDS011;44660;42.664;23.266;2023-09-08T03:02:29;7.95;;;6.00;;
58878;SDS011;44660;42.664;23.266;2023-09-08T03:04:55;8.45;;;6.57;;
58878;SDS011;44660;42.664;23.266;2023-09-08T03:07:21;11.80;;;6.38;;
58878;SDS011;44660;42.664;23.266;2023-09-08T03:09:47;8.43;;;6.70;;
58878;SDS011;44660;42.664;23.266;2023-09-08T03:12:12;10.15;;;6.80;;
58878;SDS011;44660;42.664;23.266;2023-09-08T03:14:38;11.00;;;6.88;;
58878;SDS011;44660;42.664;23.266;2023-09-08T03:17:03;11.95;;;6.82;;
58878;SDS011;44660;42.664;23.266;2023-09-08T03:19:30;8.25;;;6.43;;
58878;SDS011;44660;42.664;23.266;2023-09-08T03:21:55;12.23;;;6.82;;
58878;SDS011;44660;42.664;23.266;2023-09-08T03:24:21;10.43;;;7.15;;
58878;SDS011;44660;42.664;23.266;2023-09-08T03:26:46;9.55;;;6.80;;
58878;SDS011;44660;42.664;23.266;2023-09-08T03:29:12;9.90;;;7.07;;
58878;SDS011;44660;42.664;23.266;2023-09-08T03:31:37;12.63;;;7.03;;
58878;SDS011;44660;42.664;23.266;2023-09-08T03:34:03;13.13;;;6.75;;
58878;SDS011;44660;42.664;23.266;2023-09-08T03:36:28;11.18;;;8.23;;
58878;SDS011;44660;42.664;23.266;2023-09-08T03:38:56;16.50;;;7.60;;
58878;SDS011;44660;42.664;23.266;2023-09-08T03:41:23;11.45;;;7.65;;
58878;SDS011;44660;42.664;23.266;2023-09-08T03:43:48;11.88;;;7.35;;
58878;SDS011;44660;42.664;23.266;2023-09-08T03:46:14;11.38;;;7.47;;
58878;SDS011;44660;42.664;23.266;2023-09-08T03:48:39;10.55;;;6.88;;
58878;SDS011;44660;42.664;23.266;2023-09-08T03:51:05;11.23;;;6.70;;
58878;SDS011;44660;42.664;23.266;2023-09-08T03:53:30;13.13;;;6.50;;
58878;SDS011;44660;42.664;23.266;2023-09-08T03:55:56;11.20;;;6.85;;
58878;SDS011;44660;42.664;23.266;2023-09-08T03:58:22;7.78;;;6.10;;
58878;SDS011;44660;42.664;23.266;2023-09-08T04:00:47;13.85;;;6.82;;
58878;SDS011;44660;42.664;23.266;2023-09-08T04:03:13;9.40;;;6.60;;
58878;SDS011;44660;42.664;23.266;2023-09-08T04:05:38;10.80;;;6.80;;
58878;SDS011;44660;42.664;23.266;2023-09-08T04:08:04;10.63;;;6.70;;
58878;SDS011;44660;42.664;23.266;2023-09-08T04:10:30;12.70;;;6.60;;
58878;SDS011;44660;42.664;23.266;2023-09-08T04:12:55;10.45;;;6.95;;
58878;SDS011;44660;42.664;23.266;2023-09-08T04:15:21;11.00;;;6.70;;
58878;SDS011;44660;42.664;23.266;2023-09-08T04:17:46;10.93;;;6.22;;
58878;SDS011;44660;42.664;23.266;2023-09-08T04:20:12;9.63;;;6.90;;
58878;SDS011;44660;42.664;23.266;2023-09-08T04:22:39;11.50;;;7.15;;
58878;SDS011;44660;42.664;23.266;2023-09-08T04:25:05;11.45;;;7.25;;
58878;SDS011;44660;42.664;23.266;2023-09-08T04:27:31;11.88;;;7.35;;
58878;SDS011;44660;42.664;23.266;2023-09-08T04:29:57;12.25;;;7.20;;
58878;SDS011;44660;42.664;23.266;2023-09-08T04:32:23;11.63;;;7.75;;
58878;SDS011;44660;42.664;23.266;2023-09-08T04:34:49;9.90;;;7.38;;
58878;SDS011;44660;42.664;23.266;2023-09-08T04:37:14;12.32;;;7.50;;
58878;SDS011;44660;42.664;23.266;2023-09-08T04:39:40;13.63;;;8.50;;
58878;SDS011;44660;42.664;23.266;2023-09-08T04:42:06;11.05;;;8.00;;
58878;SDS011;44660;42.664;23.266;2023-09-08T04:44:31;10.90;;;7.85;;
58878;SDS011;44660;42.664;23.266;2023-09-08T04:46:57;11.15;;;7.72;;
58878;SDS011;44660;42.664;23.266;2023-09-08T04:49:22;11.93;;;7.82;;
58878;SDS011;44660;42.664;23.266;2023-09-08T04:51:48;15.40;;;8.10;;
58878;SDS011;44660;42.664;23.266;2023-09-08T04:54:13;14.95;;;8.18;;
58878;SDS011;44660;42.664;23.266;2023-09-08T04:56:39;15.25;;;8.10;;
58878;SDS011;44660;42.664;23.266;2023-09-08T04:59:05;10.13;;;7.38;;
58878;SDS011;44660;42.664;23.266;2023-09-08T05:01:31;13.50;;;7.85;;
58878;SDS011;44660;42.664;23.266;2023-09-08T05:03:57;10.98;;;7.80;;
58878;SDS011;44660;42.664;23.266;2023-09-08T05:06:24;12.23;;;7.57;;
58878;SDS011;44660;42.664;23.266;2023-09-08T05:08:50;11.60;;;7.82;;
58878;SDS011;44660;42.664;23.266;2023-09-08T05:11:16;19.52;;;12.23;;
58878;SDS011;44660;42.664;23.266;2023-09-08T05:13:42;20.27;;;9.57;;
58878;SDS011;44660;42.664;23.266;2023-09-08T05:16:07;16.17;;;8.30;;
58878;SDS011;44660;42.664;23.266;2023-09-08T05:18:39;13.13;;;7.72;;
58878;SDS011;44660;42.664;23.266;2023-09-08T05:21:05;12.05;;;6.35;;
58878;SDS011;44660;42.664;23.266;2023-09-08T05:23:32;15.70;;;6.50;;
58878;SDS011;44660;42.664;23.266;2023-09-08T05:25:58;12.60;;;6.45;;
58878;SDS011;44660;42.664;23.266;2023-09-08T05:28:23;14.25;;;6.45;;
58878;SDS011;44660;42.664;23.266;2023-09-08T05:30:52;12.20;;;6.28;;
58878;SDS011;44660;42.664;23.266;2023-09-08T05:33:18;10.23;;;5.88;;
58878;SDS011;44660;42.664;23.266;2023-09-08T05:35:44;7.35;;;5.55;;
58878;SDS011;44660;42.664;23.266;2023-09-08T05:38:11;14.85;;;5.75;;
58878;SDS011;44660;42.664;23.266;2023-09-08T05:40:36;9.13;;;5.55;;
58878;SDS011;44660;42.664;23.266;2023-09-08T05:43:03;9.15;;;5.55;;
58878;SDS011;44660;42.664;23.266;2023-09-08T05:45:28;10.23;;;5.70;;
58878;SDS011;44660;42.664;23.266;2023-09-08T05:47:56;14.77;;;5.85;;
58878;SDS011;44660;42.664;23.266;2023-09-08T05:50:21;10.13;;;5.35;;
58878;SDS011;44660;42.664;23.266;2023-09-08T05:52:47;10.75;;;5.00;;
58878;SDS011;44660;42.664;23.266;2023-09-08T05:55:13;9.52;;;5.40;;
58878;SDS011;44660;42.664;23.266;2023-09-08T05:57:39;8.70;;;4.20;;
58878;SDS011;44660;42.664;23.266;2023-09-08T06:00:05;8.20;;;4.65;;
58878;SDS011;44660;42.664;23.266;2023-09-08T06:02:31;10.38;;;4.00;;
58878;SDS011;44660;42.664;23.266;2023-09-08T06:04:57;6.22;;;4.43;;
58878;SDS011;44660;42.664;23.266;2023-09-08T06:07:23;6.75;;;3.80;;
58878;SDS011;44660;42.664;23.266;2023-09-08T06:09:48;10.60;;;4.57;;
58878;SDS011;44660;42.664;23.266;2023-09-08T06:12:14;6.47;;;4.45;;
58878;SDS011;44660;42.664;23.266;2023-09-08T06:14:39;8.82;;;4.38;;
58878;SDS011;44660;42.664;23.266;2023-09-08T06:17:04;8.68;;;4.03;;
58878;SDS011;44660;42.664;23.266;2023-09-08T06:19:30;8.02;;;4.60;;
58878;SDS011;44660;42.664;23.266;2023-09-08T06:21:56;6.57;;;4.47;;
58878;SDS011;44660;42.664;23.266;2023-09-08T06:24:21;12.95;;;4.43;;
58878;SDS011;44660;42.664;23.266;2023-09-08T06:26:47;11.07;;;4.57;;
58878;SDS011;44660;42.664;23.266;2023-09-08T06:29:14;11.52;;;4.75;;
58878;SDS011;44660;42.664;23.266;2023-09-08T06:31:40;11.88;;;4.20;;
58878;SDS011;44660;42.664;23.266;2023-09-08T06:34:05;5.53;;;3.50;;
58878;SDS011;44660;42.664;23.266;2023-09-08T06:36:30;14.73;;;4.10;;
58878;SDS011;44660;42.664;23.266;2023-09-08T06:38:56;4.88;;;3.83;;
58878;SDS011;44660;42.664;23.266;2023-09-08T06:41:21;9.98;;;4.00;;
58878;SDS011;44660;42.664;23.266;2023-09-08T06:43:48;8.45;;;3.95;;
58878;SDS011;44660;42.664;23.266;2023-09-08T06:46:14;9.20;;;3.88;;
58878;SDS011;44660;42.664;23.266;2023-09-08T06:48:39;9.68;;;3.75;;
58878;SDS011;44660;42.664;23.266;2023-09-08T06:51:05;4.43;;;3.03;;
58878;SDS011;44660;42.664;23.266;2023-09-08T06:53:30;5.47;;;3.70;;
58878;SDS011;44660;42.664;23.266;2023-09-08T06:55:56;5.53;;;3.22;;
58878;SDS011;44660;42.664;23.266;2023-09-08T06:58:21;9.57;;;3.58;;
58878;SDS011;44660;42.664;23.266;2023-09-08T07:00:47;6.80;;;3.65;;
58878;SDS011;44660;42.664;23.266;2023-09-08T07:03:14;10.90;;;3.55;;
58878;SDS011;44660;42.664;23.266;2023-09-08T07:05:40;6.50;;;3.70;;
58878;SDS011;44660;42.664;23.266;2023-09-08T07:08:05;9.85;;;4.07;;
58878;SDS011;44660;42.664;23.266;2023-09-08T07:10:31;8.02;;;3.58;;
58878;SDS011;44660;42.664;23.266;2023-09-08T07:12:57;4.65;;;3.42;;
58878;SDS011;44660;42.664;23.266;2023-09-08T07:15:22;5.05;;;3.50;;
58878;SDS011;44660;42.664;23.266;2023-09-08T07:17:48;5.13;;;3.20;;
58878;SDS011;44660;42.664;23.266;2023-09-08T07:20:13;7.00;;;3.08;;
58878;SDS011;44660;42.664;23.266;2023-09-08T07:22:39;7.50;;;3.22;;
58878;SDS011;44660;42.664;23.266;2023-09-08T07:25:05;5.03;;;3.00;;
58878;SDS011;44660;42.664;23.266;2023-09-08T07:27:31;6.68;;;2.80;;
58878;SDS011;44660;42.664;23.266;2023-09-08T07:29:56;4.75;;;2.97;;
58878;SDS011;44660;42.664;23.266;2023-09-08T07:32:23;4.75;;;2.67;;
58878;SDS011;44660;42.664;23.266;2023-09-08T07:34:49;5.63;;;2.67;;
58878;SDS011;44660;42.664;23.266;2023-09-08T07:37:20;6.47;;;3.00;;
58878;SDS011;44660;42.664;23.266;2023-09-08T07:39:47;6.18;;;2.60;;
58878;SDS011;44660;42.664;23.266;2023-09-08T07:42:13;4.93;;;3.00;;
58878;SDS011;44660;42.664;23.266;2023-09-08T07:44:38;6.10;;;2.80;;
58878;SDS011;44660;42.664;23.266;2023-09-08T07:47:04;6.35;;;3.13;;
58878;SDS011;44660;42.664;23.266;2023-09-08T07:49:29;5.03;;;3.20;;
58878;SDS011;44660;42.664;23.266;2023-09-08T07:51:54;4.40;;;2.92;;
58878;SDS011;44660;42.664;23.266;2023-09-08T07:54:20;7.03;;;3.10;;
58878;SDS011;44660;42.664;23.266;2023-09-08T07:56:46;5.10;;;2.88;;
58878;SDS011;44660;42.664;23.266;2023-09-08T07:59:11;3.58;;;2.97;;
58878;SDS011;44660;42.664;23.266;2023-09-08T08:01:37;5.38;;;3.03;;
58878;SDS011;44660;42.664;23.266;2023-09-08T08:04:04;6.53;;;2.90;;
58878;SDS011;44660;42.664;23.266;2023-09-08T08:06:29;7.97;;;2.92;;
58878;SDS011;44660;42.664;23.266;2023-09-08T08:08:55;4.28;;;2.88;;
58878;SDS011;44660;42.664;23.266;2023-09-08T08:11:21;6.82;;;2.78;;
58878;SDS011;44660;42.664;23.266;2023-09-08T08:13:47;5.30;;;2.75;;
58878;SDS011;44660;42.664;23.266;2023-09-08T08:16:12;4.78;;;2.83;;
58878;SDS011;44660;42.664;23.266;2023-09-08T08:18:38;4.90;;;2.83;;
58878;SDS011;44660;42.664;23.266;2023-09-08T08:21:04;6.85;;;2.60;;
58878;SDS011;44660;42.664;23.266;2023-09-08T08:23:29;4.75;;;2.88;;
58878;SDS011;44660;42.664;23.266;2023-09-08T08:25:56;4.13;;;2.83;;
58878;SDS011;44660;42.664;23.266;2023-09-08T08:28:22;4.65;;;2.85;;
58878;SDS011;44660;42.664;23.266;2023-09-08T08:30:49;5.72;;;2.95;;
58878;SDS011;44660;42.664;23.266;2023-09-08T08:33:15;6.53;;;2.85;;
58878;SDS011;44660;42.664;23.266;2023-09-08T08:35:40;5.47;;;2.92;;
58878;SDS011;44660;42.664;23.266;2023-09-08T08:38:05;4.18;;;2.70;;
58878;SDS011;44660;42.664;23.266;2023-09-08T08:40:31;6.28;;;2.75;;
58878;SDS011;44660;42.664;23.266;2023-09-08T08:42:59;6.85;;;2.70;;
58878;SDS011;44660;42.664;23.266;2023-09-08T08:45:34;6.95;;;2.67;;
58878;SDS011;44660;42.664;23.266;2023-09-08T08:48:01;4.95;;;2.70;;
58878;SDS011;44660;42.664;23.266;2023-09-08T08:50:29;4.70;;;2.65;;
58878;SDS011;44660;42.664;23.266;2023-09-08T08:52:56;3.72;;;2.38;;
58878;SDS011;44660;42.664;23.266;2023-09-08T08:55:23;5.57;;;2.35;;
58878;SDS011;44660;42.664;23.266;2023-09-08T09:00:16;5.38;;;2.70;;
58878;SDS011;44660;42.664;23.266;2023-09-08T09:02:43;6.53;;;2.70;;
58878;SDS011;44660;42.664;23.266;2023-09-08T09:05:13;4.75;;;2.67;;
58878;SDS011;44660;42.664;23.266;2023-09-08T09:07:39;4.25;;;2.65;;
58878;SDS011;44660;42.664;23.266;2023-09-08T09:10:08;3.45;;;2.40;;
58878;SDS011;44660;42.664;23.266;2023-09-08T09:12:38;5.28;;;2.85;;
58878;SDS011;44660;42.664;23.266;2023-09-08T09:15:04;5.18;;;2.70;;
58878;SDS011;44660;42.664;23.266;2023-09-08T09:17:32;6.25;;;2.85;;
58878;SDS011;44660;42.664;23.266;2023-09-08T09:20:13;4.07;;;2.78;;
58878;SDS011;44660;42.664;23.266;2023-09-08T09:22:40;5.55;;;2.88;;
58878;SDS011;44660;42.664;23.266;2023-09-08T09:25:06;5.35;;;2.92;;
58878;SDS011;44660;42.664;23.266;2023-09-08T09:27:32;6.70;;;2.95;;
58878;SDS011;44660;42.664;23.266;2023-09-08T09:30:02;6.22;;;3.10;;
58878;SDS011;44660;42.664;23.266;2023-09-08T09:32:28;5.93;;;2.80;;
58878;SDS011;44660;42.664;23.266;2023-09-08T09:34:56;4.45;;;2.92;;
58878;SDS011;44660;42.664;23.266;2023-09-08T09:37:22;4.43;;;2.85;;
58878;SDS011;44660;42.664;23.266;2023-09-08T09:39:49;6.20;;;2.85;;
58878;SDS011;44660;42.664;23.266;2023-09-08T09:42:15;4.50;;;3.10;;
58878;SDS011;44660;42.664;23.266;2023-09-08T09:44:41;5.85;;;3.00;;
58878;SDS011;44660;42.664;23.266;2023-09-08T09:47:07;3.63;;;3.22;;
58878;SDS011;44660;42.664;23.266;2023-09-08T09:49:41;4.75;;;2.80;;
58878;SDS011;44660;42.664;23.266;2023-09-08T09:52:07;3.75;;;3.05;;
58878;SDS011;44660;42.664;23.266;2023-09-08T09:54:33;6.65;;;2.83;;
58878;SDS011;44660;42.664;23.266;2023-09-08T09:56:58;3.97;;;2.95;;
58878;SDS011;44660;42.664;23.266;2023-09-08T09:59:24;5.70;;;3.10;;
58878;SDS011;44660;42.664;23.266;2023-09-08T10:01:50;7.43;;;2.97;;
58878;SDS011;44660;42.664;23.266;2023-09-08T10:04:16;3.85;;;3.03;;
58878;SDS011;44660;42.664;23.266;2023-09-08T10:06:42;4.53;;;3.17;;
58878;SDS011;44660;42.664;23.266;2023-09-08T10:09:08;6.10;;;3.00;;
58878;SDS011;44660;42.664;23.266;2023-09-08T10:11:39;4.10;;;3.05;;
58878;SDS011;44660;42.664;23.266;2023-09-08T10:14:08;5.72;;;3.25;;
58878;SDS011;44660;42.664;23.266;2023-09-08T10:16:36;4.28;;;2.83;;
58878;SDS011;44660;42.664;23.266;2023-09-08T10:19:07;3.97;;;3.20;;
58878;SDS011;44660;42.664;23.266;2023-09-08T10:21:38;5.47;;;3.33;;
58878;SDS011;44660;42.664;23.266;2023-09-08T10:24:12;5.43;;;3.38;;
58878;SDS011;44660;42.664;23.266;2023-09-08T10:26:40;3.78;;;3.13;;
58878;SDS011;44660;42.664;23.266;2023-09-08T10:29:09;3.63;;;3.00;;
58878;SDS011;44660;42.664;23.266;2023-09-08T10:31:35;5.88;;;2.88;;
58878;SDS011;44660;42.664;23.266;2023-09-08T10:34:02;7.25;;;3.13;;
58878;SDS011;44660;42.664;23.266;2023-09-08T10:36:28;5.07;;;2.90;;
58878;SDS011;44660;42.664;23.266;2023-09-08T10:38:53;5.85;;;3.17;;
58878;SDS011;44660;42.664;23.266;2023-09-08T10:43:54;4.57;;;2.90;;
58878;SDS011;44660;42.664;23.266;2023-09-08T10:46:22;10.07;;;3.15;;
58878;SDS011;44660;42.664;23.266;2023-09-08T10:49:00;6.97;;;3.22;;
58878;SDS011;44660;42.664;23.266;2023-09-08T10:51:29;5.85;;;3.08;;
58878;SDS011;44660;42.664;23.266;2023-09-08T10:53:55;5.88;;;3.05;;
58878;SDS011;44660;42.664;23.266;2023-09-08T10:56:22;5.90;;;3.25;;
58878;SDS011;44660;42.664;23.266;2023-09-08T10:58:52;6.88;;;3.45;;
58878;SDS011;44660;42.664;23.266;2023-09-08T11:01:18;6.88;;;3.33;;
58878;SDS011;44660;42.664;23.266;2023-09-08T11:03:51;4.50;;;3.05;;
58878;SDS011;44660;42.664;23.266;2023-09-08T11:06:17;4.93;;;3.22;;
58878;SDS011;44660;42.664;23.266;2023-09-08T11:08:44;7.10;;;3.40;;
58878;SDS011;44660;42.664;23.266;2023-09-08T11:11:11;6.10;;;3.05;;
58878;SDS011;44660;42.664;23.266;2023-09-08T11:13:39;5.03;;;2.72;;
58878;SDS011;44660;42.664;23.266;2023-09-08T11:16:06;3.53;;;3.10;;
58878;SDS011;44660;42.664;23.266;2023-09-08T11:18:32;9.07;;;3.25;;
58878;SDS011;44660;42.664;23.266;2023-09-08T11:20:59;6.05;;;3.17;;
58878;SDS011;44660;42.664;23.266;2023-09-08T11:23:27;6.32;;;3.15;;
58878;SDS011;44660;42.664;23.266;2023-09-08T11:25:52;3.88;;;3.03;;
58878;SDS011;44660;42.664;23.266;2023-09-08T11:28:19;4.72;;;3.53;;
58878;SDS011;44660;42.664;23.266;2023-09-08T11:30:47;4.78;;;3.75;;
58878;SDS011;44660;42.664;23.266;2023-09-08T11:33:16;4.90;;;3.20;;
58878;SDS011;44660;42.664;23.266;2023-09-08T11:35:45;5.55;;;2.95;;
58878;SDS011;44660;42.664;23.266;2023-09-08T11:38:10;8.30;;;3.40;;
58878;SDS011;44660;42.664;23.266;2023-09-08T11:40:36;7.57;;;3.30;;
58878;SDS011;44660;42.664;23.266;2023-09-08T11:43:02;7.32;;;3.25;;
58878;SDS011;44660;42.664;23.266;2023-09-08T11:45:28;4.30;;;3.22;;
58878;SDS011;44660;42.664;23.266;2023-09-08T11:47:55;5.95;;;3.25;;
58878;SDS011;44660;42.664;23.266;2023-09-08T11:50:21;4.82;;;3.40;;
58878;SDS011;44660;42.664;23.266;2023-09-08T11:52:49;6.47;;;3.25;;
58878;SDS011;44660;42.664;23.266;2023-09-08T11:55:15;7.20;;;3.22;;
58878;SDS011;44660;42.664;23.266;2023-09-08T11:57:42;6.03;;;2.75;;
58878;SDS011;44660;42.664;23.266;2023-09-08T12:00:10;6.68;;;3.30;;
58878;SDS011;44660;42.664;23.266;2023-09-08T12:02:42;5.80;;;3.15;;
58878;SDS011;44660;42.664;23.266;2023-09-08T12:05:12;7.53;;;3.30;;
58878;SDS011;44660;42.664;23.266;2023-09-08T12:07:38;7.03;;;3.22;;
58878;SDS011;44660;42.664;23.266;2023-09-08T12:10:10;4.82;;;3.20;;
58878;SDS011;44660;42.664;23.266;2023-09-08T12:12:47;3.85;;;2.95;;
58878;SDS011;44660;42.664;23.266;2023-09-08T12:15:30;6.07;;;3.00;;
58878;SDS011;44660;42.664;23.266;2023-09-08T12:18:07;5.35;;;2.90;;
58878;SDS011;44660;42.664;23.266;2023-09-08T12:20:33;5.65;;;3.33;;
58878;SDS011;44660;42.664;23.266;2023-09-08T12:23:06;4.88;;;3.28;;
58878;SDS011;44660;42.664;23.266;2023-09-08T12:25:48;7.35;;;3.40;;
58878;SDS011;44660;42.664;23.266;2023-09-08T12:28:16;4.55;;;3.10;;
58878;SDS011;44660;42.664;23.266;2023-09-08T12:30:43;4.32;;;3.17;;
58878;SDS011;44660;42.664;23.266;2023-09-08T12:33:09;5.70;;;3.45;;
58878;SDS011;44660;42.664;23.266;2023-09-08T12:35:36;5.80;;;3.10;;
58878;SDS011;44660;42.664;23.266;2023-09-08T12:38:04;5.72;;;3.63;;
58878;SDS011;44660;42.664;23.266;2023-09-08T12:40:32;5.90;;;3.10;;
58878;SDS011;44660;42.664;23.266;2023-09-08T12:43:02;6.85;;;3.30;;
58878;SDS011;44660;42.664;23.266;2023-09-08T12:45:28;4.88;;;3.03;;
58878;SDS011;44660;42.664;23.266;2023-09-08T12:47:58;5.53;;;3.33;;
58878;SDS011;44660;42.664;23.266;2023-09-08T12:50:25;4.00;;;2.95;;
58878;SDS011;44660;42.664;23.266;2023-09-08T12:52:51;7.15;;;3.35;;
58878;SDS011;44660;42.664;23.266;2023-09-08T12:55:16;7.13;;;3.30;;
58878;SDS011;44660;42.664;23.266;2023-09-08T12:57:42;5.55;;;3.53;;
58878;SDS011;44660;42.664;23.266;2023-09-08T13:00:08;4.65;;;3.30;;
58878;SDS011;44660;42.664;23.266;2023-09-08T13:02:34;5.38;;;3.13;;
58878;SDS011;44660;42.664;23.266;2023-09-08T13:05:00;5.40;;;3.47;;
58878;SDS011;44660;42.664;23.266;2023-09-08T13:07:26;5.78;;;3.38;;
58878;SDS011;44660;42.664;23.266;2023-09-08T13:09:51;6.88;;;3.20;;
58878;SDS011;44660;42.664;23.266;2023-09-08T13:12:17;11.05;;;4.50;;
58878;SDS011;44660;42.664;23.266;2023-09-08T13:14:43;5.25;;;3.67;;
58878;SDS011;44660;42.664;23.266;2023-09-08T13:17:09;7.30;;;3.63;;
58878;SDS011;44660;42.664;23.266;2023-09-08T13:19:35;4.05;;;3.20;;
58878;SDS011;44660;42.664;23.266;2023-09-08T13:22:03;5.47;;;3.50;;
58878;SDS011;44660;42.664;23.266;2023-09-08T13:24:29;5.05;;;3.38;;
58878;SDS011;44660;42.664;23.266;2023-09-08T13:26:55;4.03;;;3.50;;
58878;SDS011;44660;42.664;23.266;2023-09-08T13:29:20;8.10;;;3.33;;
58878;SDS011;44660;42.664;23.266;2023-09-08T13:31:46;4.85;;;3.17;;
58878;SDS011;44660;42.664;23.266;2023-09-08T13:34:11;10.23;;;3.58;;
58878;SDS011;44660;42.664;23.266;2023-09-08T13:36:37;11.35;;;3.40;;
58878;SDS011;44660;42.664;23.266;2023-09-08T13:39:02;9.48;;;3.28;;
58878;SDS011;44660;42.664;23.266;2023-09-08T13:44:12;7.85;;;3.20;;
58878;SDS011;44660;42.664;23.266;2023-09-08T13:46:37;6.07;;;3.53;;
58878;SDS011;44660;42.664;23.266;2023-09-08T13:49:03;6.28;;;3.92;;
58878;SDS011;44660;42.664;23.266;2023-09-08T13:51:28;4.35;;;3.35;;
58878;SDS011;44660;42.664;23.266;2023-09-08T13:53:54;4.88;;;3.10;;
58878;SDS011;44660;42.664;23.266;2023-09-08T13:56:19;6.35;;;3.28;;
58878;SDS011;44660;42.664;23.266;2023-09-08T13:58:45;6.47;;;3.50;;
58878;SDS011;44660;42.664;23.266;2023-09-08T14:01:10;4.95;;;3.40;;
58878;SDS011;44660;42.664;23.266;2023-09-08T14:03:36;4.78;;;3.05;;
58878;SDS011;44660;42.664;23.266;2023-09-08T14:06:02;6.18;;;2.95;;
58878;SDS011;44660;42.664;23.266;2023-09-08T14:08:27;5.60;;;3.58;;
58878;SDS011;44660;42.664;23.266;2023-09-08T14:10:52;6.65;;;3.25;;
58878;SDS011;44660;42.664;23.266;2023-09-08T14:13:19;7.57;;;3.45;;
58878;SDS011;44660;42.664;23.266;2023-09-08T14:15:44;6.72;;;3.00;;
58878;SDS011;44660;42.664;23.266;2023-09-08T14:18:09;5.15;;;3.20;;
58878;SDS011;44660;42.664;23.266;2023-09-08T14:20:35;7.07;;;3.65;;
58878;SDS011;44660;42.664;23.266;2023-09-08T14:23:01;6.70;;;3.60;;
58878;SDS011;44660;42.664;23.266;2023-09-08T14:25:27;7.40;;;3.10;;
58878;SDS011;44660;42.664;23.266;2023-09-08T14:27:52;5.68;;;3.45;;
58878;SDS011;44660;42.664;23.266;2023-09-08T14:30:18;3.83;;;2.95;;
58878;SDS011;44660;42.664;23.266;2023-09-08T14:32:43;6.43;;;3.30;;
58878;SDS011;44660;42.664;23.266;2023-09-08T14:35:09;8.07;;;3.25;;
58878;SDS011;44660;42.664;23.266;2023-09-08T14:37:35;5.88;;;3.60;;
58878;SDS011;44660;42.664;23.266;2023-09-08T14:40:01;4.93;;;3.13;;